Time;durP1;ratioP1;P1;durP2;ratioP2;P2;SDS_P1;SDS_P2;PMS_P1;PMS_P2;Temp;Humidity;BMP_temperature;BMP_pressure;BME280_temperature;BME280_humidity;BME280_pressure;Samples;Min_cycle;Max_cycle;Signal;HPM_P1;HPM_P2
2022/03/13 00:00:23;;;;;;;0.95;0.95;;;5.60;98.90;;;;;;5011173;28;20420;-75
2022/03/13 00:02:51;;;;;;;0.80;0.60;;;5.60;98.80;;;;;;4982722;28;20848;-74
2022/03/13 00:05:17;;;;;;;0.40;0.20;;;5.60;98.90;;;;;;5010276;28;20427;-73
2022/03/13 00:07:50;;;;;;;1.00;0.70;;;5.60;98.70;;;;;;5009324;28;20416;-74
2022/03/13 00:10:27;;;;;;;0.40;0.30;;;5.60;98.80;;;;;;5010045;28;20718;-74
2022/03/13 00:12:54;;;;;;;0.40;0.30;;;5.50;98.80;;;;;;5011042;28;20507;-73
2022/03/13 00:15:32;;;;;;;2.50;1.30;;;5.40;99.60;;;;;;5010079;28;20469;-73
2022/03/13 00:17:59;;;;;;;1.17;0.82;;;5.40;99.50;;;;;;5010637;28;20881;-74
2022/03/13 00:20:27;;;;;;;0.70;0.60;;;5.40;99.60;;;;;;5009997;28;20384;-74
2022/03/13 00:22:54;;;;;;;0.60;0.60;;;5.40;99.50;;;;;;4990925;28;20415;-75
2022/03/13 00:25:20;;;;;;;0.40;0.20;;;5.30;99.80;;;;;;4990033;28;20901;-74
2022/03/13 00:27:47;;;;;;;0.40;0.22;;;5.30;99.90;;;;;;4991443;28;20877;-73
2022/03/13 00:30:13;;;;;;;0.60;0.60;;;5.30;99.90;;;;;;4990770;28;20747;-72
2022/03/13 00:32:39;;;;;;;0.40;0.30;;;5.40;99.80;;;;;;4990938;28;20477;-74
2022/03/13 00:35:05;;;;;;;0.40;0.28;;;5.20;99.90;;;;;;4993221;28;20386;-73
2022/03/13 00:37:31;;;;;;;0.40;0.20;;;5.30;99.90;;;;;;5009830;28;20418;-74
2022/03/13 00:39:57;;;;;;;0.40;0.30;;;5.20;99.90;;;;;;5010388;28;20855;-74
2022/03/13 00:42:24;;;;;;;0.40;0.20;;;5.10;99.90;;;;;;5009799;28;20412;-74
2022/03/13 00:44:49;;;;;;;0.65;0.65;;;5.10;99.90;;;;;;5010523;28;20439;-73
2022/03/13 00:47:18;;;;;;;0.50;0.37;;;5.00;99.90;;;;;;5009869;28;20380;-73
2022/03/13 00:49:45;;;;;;;0.40;0.40;;;5.00;99.90;;;;;;5009090;28;20413;-73
2022/03/13 00:52:10;;;;;;;0.50;0.50;;;5.10;99.90;;;;;;5010948;28;20417;-73
2022/03/13 00:54:36;;;;;;;0.80;0.50;;;5.10;99.90;;;;;;5012419;28;20729;-74
2022/03/13 00:57:02;;;;;;;0.80;0.80;;;5.10;99.80;;;;;;5014747;28;20392;-74
2022/03/13 00:59:27;;;;;;;0.40;0.30;;;5.00;99.70;;;;;;5013614;28;20416;-73
2022/03/13 01:01:53;;;;;;;1.10;0.90;;;4.90;99.90;;;;;;5014131;28;20420;-74
2022/03/13 01:04:19;;;;;;;0.40;0.30;;;4.90;99.90;;;;;;5012081;28;20811;-73
2022/03/13 01:06:46;;;;;;;0.40;0.30;;;5.00;99.90;;;;;;5014030;28;20392;-74
2022/03/13 01:09:12;;;;;;;0.40;0.20;;;5.10;99.70;;;;;;5013798;28;20437;-74
2022/03/13 01:11:37;;;;;;;0.40;0.20;;;5.00;99.50;;;;;;5013303;28;20427;-74
2022/03/13 01:14:05;;;;;;;0.90;0.90;;;5.00;99.50;;;;;;5014247;28;20381;-74
2022/03/13 01:16:38;;;;;;;0.40;0.30;;;5.00;99.60;;;;;;5013324;28;20446;-74
2022/03/13 01:19:04;;;;;;;1.00;0.90;;;4.90;99.70;;;;;;5014116;28;20384;-74
2022/03/13 01:21:34;;;;;;;0.60;0.60;;;5.00;99.60;;;;;;5013050;28;20416;-74
2022/03/13 01:23:59;;;;;;;0.50;0.50;;;4.80;99.90;;;;;;5013699;28;20399;-73
2022/03/13 01:26:25;;;;;;;1.30;1.20;;;4.70;99.90;;;;;;5013154;28;20385;-73
2022/03/13 01:28:52;;;;;;;0.40;0.20;;;4.70;99.90;;;;;;5013592;28;20443;-74
2022/03/13 01:31:23;;;;;;;0.40;0.20;;;4.80;99.90;;;;;;5013013;28;20447;-73
2022/03/13 01:33:49;;;;;;;0.40;0.20;;;4.80;99.90;;;;;;5013920;28;20413;-74
2022/03/13 01:36:15;;;;;;;0.70;0.60;;;4.80;99.90;;;;;;5012371;28;20447;-73
2022/03/13 01:38:40;;;;;;;0.40;0.40;;;4.80;99.90;;;;;;5013154;28;20738;-73
2022/03/13 01:41:07;;;;;;;1.30;0.70;;;4.90;99.90;;;;;;5013570;28;20385;-72
2022/03/13 01:43:33;;;;;;;0.40;0.40;;;4.90;99.90;;;;;;5012527;28;20399;-73
2022/03/13 01:45:59;;;;;;;0.40;0.20;;;4.90;99.90;;;;;;5013226;28;20380;-73
2022/03/13 01:48:26;;;;;;;0.40;0.40;;;4.80;99.90;;;;;;5012627;28;20524;-73
2022/03/13 01:50:52;;;;;;;0.90;0.80;;;4.80;99.90;;;;;;5013630;28;20387;-73
2022/03/13 01:53:20;;;;;;;0.40;0.20;;;4.80;99.90;;;;;;5012830;28;20748;-73
2022/03/13 01:55:46;;;;;;;0.40;0.40;;;4.80;99.90;;;;;;5013324;28;20417;-73
2022/03/13 01:58:12;;;;;;;1.20;0.50;;;4.70;99.90;;;;;;5013350;28;20853;-74
2022/03/13 02:00:38;;;;;;;1.00;0.80;;;4.70;99.90;;;;;;5011155;28;20849;-73
2022/03/13 02:03:04;;;;;;;0.40;0.20;;;4.70;99.90;;;;;;5012942;28;20504;-73
2022/03/13 02:05:32;;;;;;;0.40;0.40;;;4.70;99.90;;;;;;5011824;28;20389;-73
2022/03/13 02:08:00;;;;;;;0.70;0.70;;;4.60;99.90;;;;;;5012370;28;20433;-73
2022/03/13 02:10:26;;;;;;;0.40;0.20;;;4.60;99.90;;;;;;5012237;28;20802;-73
2022/03/13 02:12:52;;;;;;;0.40;0.25;;;4.70;99.90;;;;;;5013000;28;20476;-73
2022/03/13 02:15:18;;;;;;;0.50;0.50;;;4.70;99.90;;;;;;5012747;28;20885;-73
2022/03/13 02:17:43;;;;;;;0.40;0.20;;;4.70;99.90;;;;;;5012552;28;20377;-73
2022/03/13 02:20:14;;;;;;;0.40;0.30;;;4.60;99.90;;;;;;5012601;28;20821;-73
2022/03/13 02:22:47;;;;;;;0.40;0.30;;;4.60;99.90;;;;;;5010982;28;20413;-73
2022/03/13 02:25:22;;;;;;;0.55;0.50;;;4.50;99.90;;;;;;5012819;28;20377;-73
2022/03/13 02:27:48;;;;;;;0.40;0.20;;;4.50;99.90;;;;;;5012524;28;20849;-73
2022/03/13 02:30:14;;;;;;;0.70;0.60;;;4.40;99.90;;;;;;5012759;28;20423;-73
2022/03/13 02:32:39;;;;;;;0.40;0.30;;;4.40;99.90;;;;;;5011901;28;20392;-73
2022/03/13 02:35:05;;;;;;;0.60;0.60;;;4.40;99.90;;;;;;5011256;28;20460;-73
2022/03/13 02:37:36;;;;;;;0.40;0.40;;;4.30;99.90;;;;;;5011696;28;20419;-73
2022/03/13 02:40:04;;;;;;;0.40;0.20;;;4.20;99.90;;;;;;5012407;28;20397;-73
2022/03/13 02:42:30;;;;;;;0.52;0.52;;;4.20;99.90;;;;;;5010345;28;20923;-73
2022/03/13 02:44:55;;;;;;;0.40;0.35;;;4.30;99.90;;;;;;5012524;28;20393;-73
2022/03/13 02:47:21;;;;;;;0.40;0.20;;;4.30;99.90;;;;;;5012031;28;20722;-73
2022/03/13 02:49:47;;;;;;;1.10;1.00;;;4.30;99.90;;;;;;5011987;28;20769;-73
2022/03/13 02:52:12;;;;;;;0.40;0.40;;;4.40;99.90;;;;;;5012246;28;20731;-73
2022/03/13 02:54:38;;;;;;;0.60;0.60;;;4.40;99.90;;;;;;5011182;28;20468;-73
2022/03/13 02:57:05;;;;;;;0.60;0.60;;;4.50;99.90;;;;;;5011998;28;20806;-73
2022/03/13 02:59:30;;;;;;;0.40;0.30;;;4.50;99.90;;;;;;5011211;28;20381;-73
2022/03/13 03:02:00;;;;;;;0.40;0.40;;;4.50;99.90;;;;;;5012087;28;20412;-73
2022/03/13 03:04:26;;;;;;;0.40;0.30;;;4.50;99.90;;;;;;5011279;28;20401;-73
2022/03/13 03:06:56;;;;;;;0.40;0.20;;;4.40;99.90;;;;;;5011894;28;20388;-73
2022/03/13 03:09:23;;;;;;;0.40;0.30;;;4.40;99.90;;;;;;5005228;28;20407;-73
2022/03/13 03:11:49;;;;;;;0.60;0.60;;;4.40;99.90;;;;;;4992187;28;20399;-73
2022/03/13 03:14:18;;;;;;;0.90;0.90;;;4.50;99.90;;;;;;4992264;28;20389;-73
2022/03/13 03:16:45;;;;;;;3.00;0.70;;;4.50;99.90;;;;;;4990669;28;20383;-73
2022/03/13 03:19:11;;;;;;;0.40;0.30;;;4.40;99.90;;;;;;4992186;28;20390;-73
2022/03/13 03:21:38;;;;;;;0.70;0.70;;;4.50;99.90;;;;;;4991327;28;20743;-73
2022/03/13 03:24:11;;;;;;;0.40;0.22;;;4.50;99.90;;;;;;4992001;28;20413;-74
2022/03/13 03:26:38;;;;;;;0.40;0.30;;;4.50;99.90;;;;;;4991094;28;20379;-73
2022/03/13 03:29:04;;;;;;;0.40;0.28;;;4.60;99.90;;;;;;4974593;28;20883;-74
2022/03/13 03:31:30;;;;;;;0.40;0.40;;;4.70;99.90;;;;;;4991015;28;20587;-73
2022/03/13 03:33:55;;;;;;;0.40;0.30;;;4.60;99.90;;;;;;4991986;28;20378;-74
2022/03/13 03:36:21;;;;;;;0.40;0.30;;;4.60;99.90;;;;;;4990483;28;20405;-74
2022/03/13 03:38:47;;;;;;;0.40;0.20;;;4.70;99.90;;;;;;4991185;28;20867;-73
2022/03/13 03:41:13;;;;;;;0.40;0.20;;;4.70;99.90;;;;;;4991581;28;20402;-73
2022/03/13 03:43:38;;;;;;;0.40;0.27;;;4.70;99.90;;;;;;4991428;28;20403;-73
2022/03/13 03:46:04;;;;;;;0.40;0.20;;;4.70;99.90;;;;;;4990207;28;20390;-73
2022/03/13 03:48:30;;;;;;;0.50;0.50;;;4.70;99.90;;;;;;4990954;28;20525;-74
2022/03/13 03:50:57;;;;;;;0.50;0.50;;;4.70;99.90;;;;;;4991608;28;20513;-73
2022/03/13 03:53:23;;;;;;;0.40;0.20;;;4.70;99.90;;;;;;4991425;28;20394;-73
2022/03/13 03:55:48;;;;;;;0.60;0.60;;;4.70;99.90;;;;;;4990943;28;20378;-73
2022/03/13 03:58:14;;;;;;;0.40;0.30;;;4.70;99.90;;;;;;4991654;28;20387;-73
2022/03/13 04:00:40;;;;;;;1.33;1.23;;;4.70;99.90;;;;;;4989364;28;20399;-73
2022/03/13 04:03:05;;;;;;;1.00;0.80;;;4.70;99.90;;;;;;4990311;28;20454;-72
2022/03/13 04:05:32;;;;;;;1.70;1.57;;;4.80;99.90;;;;;;4990454;28;20390;-72
2022/03/13 04:07:58;;;;;;;0.80;0.60;;;4.70;99.90;;;;;;4990948;28;20431;-72
2022/03/13 04:10:25;;;;;;;0.65;0.65;;;4.70;99.90;;;;;;4991158;28;20390;-72
2022/03/13 04:12:50;;;;;;;0.40;0.30;;;4.60;99.90;;;;;;4990874;28;20870;-72
2022/03/13 04:15:16;;;;;;;0.40;0.30;;;4.60;99.90;;;;;;4991547;28;20397;-72
2022/03/13 04:17:42;;;;;;;0.60;0.60;;;4.60;99.90;;;;;;4990514;28;20383;-72
2022/03/13 04:20:08;;;;;;;0.40;0.30;;;4.50;99.90;;;;;;4991303;28;20374;-72
2022/03/13 04:22:34;;;;;;;0.40;0.40;;;4.50;99.90;;;;;;4990327;28;20414;-72
2022/03/13 04:24:59;;;;;;;0.80;0.70;;;4.50;99.90;;;;;;4991123;28;20398;-72
2022/03/13 04:27:25;;;;;;;0.40;0.20;;;4.40;99.90;;;;;;4990924;28;20386;-72
2022/03/13 04:29:51;;;;;;;0.70;0.60;;;4.40;99.90;;;;;;4990575;28;20383;-72
2022/03/13 04:32:23;;;;;;;0.40;0.30;;;4.50;99.90;;;;;;4991016;28;20402;-72
2022/03/13 04:34:49;;;;;;;2.10;1.50;;;4.40;99.90;;;;;;4990734;28;20954;-72
2022/03/13 04:37:16;;;;;;;0.60;0.60;;;4.40;99.90;;;;;;4991185;28;20403;-72
2022/03/13 04:39:42;;;;;;;0.40;0.20;;;4.50;99.90;;;;;;4990608;28;20402;-72
2022/03/13 04:42:08;;;;;;;1.13;0.77;;;4.40;99.90;;;;;;4991241;28;20863;-72
2022/03/13 04:44:34;;;;;;;0.40;0.30;;;4.50;99.90;;;;;;4990545;28;20401;-72
2022/03/13 04:47:01;;;;;;;1.40;0.60;;;4.50;99.90;;;;;;4991315;28;20386;-72
2022/03/13 04:49:27;;;;;;;1.00;1.00;;;4.50;99.90;;;;;;4991286;28;20394;-72
2022/03/13 04:51:53;;;;;;;0.40;0.30;;;4.50;99.90;;;;;;4990749;28;20759;-72
2022/03/13 04:54:18;;;;;;;0.40;0.30;;;4.50;99.90;;;;;;4991118;28;20386;-73
2022/03/13 04:56:45;;;;;;;0.40;0.20;;;4.50;99.90;;;;;;4990176;28;20378;-73
2022/03/13 04:59:11;;;;;;;1.08;0.98;;;4.60;99.90;;;;;;4991362;28;20374;-73
2022/03/13 05:01:37;;;;;;;0.40;0.30;;;4.50;99.90;;;;;;4990415;28;20417;-72
2022/03/13 05:04:03;;;;;;;0.60;0.60;;;4.60;99.90;;;;;;4989813;28;20398;-73
2022/03/13 05:06:29;;;;;;;0.40;0.30;;;4.70;99.90;;;;;;4990673;28;20735;-72
2022/03/13 05:08:55;;;;;;;1.40;0.70;;;4.60;99.90;;;;;;4992968;28;20406;-73
2022/03/13 05:11:21;;;;;;;0.50;0.50;;;4.50;99.90;;;;;;5010644;28;20400;-73
2022/03/13 05:13:46;;;;;;;0.40;0.30;;;4.50;99.90;;;;;;5009971;28;20907;-73
2022/03/13 05:16:12;;;;;;;0.40;0.40;;;4.40;99.90;;;;;;5010503;28;20413;-72
2022/03/13 05:18:38;;;;;;;0.40;0.20;;;4.60;99.90;;;;;;5009619;28;20385;-72
2022/03/13 05:21:04;;;;;;;0.40;0.30;;;4.40;99.90;;;;;;5010181;28;20424;-72
2022/03/13 05:23:29;;;;;;;0.40;0.30;;;4.50;99.90;;;;;;5010082;28;20489;-73
2022/03/13 05:25:55;;;;;;;0.60;0.60;;;4.50;99.90;;;;;;5010103;28;20392;-72
2022/03/13 05:28:21;;;;;;;0.40;0.40;;;4.60;99.90;;;;;;5009235;28;20412;-72
2022/03/13 05:30:46;;;;;;;0.40;0.20;;;4.50;99.90;;;;;;5009768;28;20798;-72
2022/03/13 05:33:12;;;;;;;2.20;2.00;;;4.50;99.90;;;;;;5009222;28;20446;-73
2022/03/13 05:35:38;;;;;;;0.40;0.30;;;4.50;99.90;;;;;;5008567;28;20381;-72
2022/03/13 05:38:04;;;;;;;0.40;0.35;;;4.60;99.90;;;;;;5010057;28;20399;-73
2022/03/13 05:40:30;;;;;;;0.40;0.20;;;4.60;99.90;;;;;;5012742;28;20727;-72
2022/03/13 05:42:57;;;;;;;0.70;0.70;;;4.70;99.90;;;;;;5013025;28;20570;-72
2022/03/13 05:45:25;;;;;;;0.60;0.60;;;4.60;99.90;;;;;;5012795;28;20395;-73
2022/03/13 05:47:55;;;;;;;0.70;0.70;;;4.60;99.90;;;;;;5012996;28;20395;-72
2022/03/13 05:50:23;;;;;;;0.40;0.30;;;4.60;99.90;;;;;;5013887;28;20451;-72
2022/03/13 05:52:49;;;;;;;0.40;0.20;;;4.60;99.90;;;;;;5012883;28;20397;-72
2022/03/13 05:55:17;;;;;;;0.40;0.30;;;4.60;99.90;;;;;;5013722;28;20396;-73
2022/03/13 05:57:43;;;;;;;0.40;0.40;;;4.60;99.90;;;;;;5012884;28;20421;-72
2022/03/13 06:00:11;;;;;;;0.40;0.20;;;4.70;99.90;;;;;;5013727;28;20392;-72
2022/03/13 06:02:38;;;;;;;0.40;0.30;;;4.70;99.90;;;;;;5012875;28;20409;-72
2022/03/13 06:05:06;;;;;;;0.40;0.30;;;4.80;99.90;;;;;;5013604;28;20401;-72
2022/03/13 06:07:32;;;;;;;0.40;0.22;;;4.80;99.90;;;;;;5011831;28;20455;-73
2022/03/13 06:09:57;;;;;;;5.20;0.90;;;4.80;99.90;;;;;;5011866;28;20400;-72
2022/03/13 06:12:23;;;;;;;0.40;0.20;;;4.80;99.90;;;;;;5013367;28;20872;-73
2022/03/13 06:14:49;;;;;;;2.30;1.33;;;4.80;99.90;;;;;;5012943;28;20385;-72
2022/03/13 06:17:14;;;;;;;0.40;0.20;;;4.90;99.90;;;;;;5013369;28;20381;-73
2022/03/13 06:19:42;;;;;;;0.40;0.20;;;4.90;99.90;;;;;;5007642;28;20397;-73
2022/03/13 06:22:10;;;;;;;0.40;0.20;;;5.10;99.90;;;;;;5008290;28;20471;-73
2022/03/13 06:24:36;;;;;;;0.40;0.20;;;5.00;99.90;;;;;;5009703;28;20400;-73
2022/03/13 06:27:02;;;;;;;0.40;0.20;;;5.10;99.90;;;;;;5006738;28;20386;-73
2022/03/13 06:29:30;;;;;;;0.40;0.30;;;5.10;99.90;;;;;;5001142;28;20396;-73
2022/03/13 06:31:56;;;;;;;0.40;0.30;;;5.20;99.90;;;;;;5006472;28;20413;-73
2022/03/13 06:34:22;;;;;;;2.20;0.80;;;5.30;99.60;;;;;;5005885;28;20424;-73
2022/03/13 06:36:50;;;;;;;0.60;0.60;;;5.20;99.40;;;;;;5007786;28;20393;-73
2022/03/13 06:39:16;;;;;;;0.40;0.20;;;5.30;99.90;;;;;;5011060;28;20543;-73
2022/03/13 06:41:45;;;;;;;1.50;0.80;;;5.40;99.20;;;;;;5006802;28;20450;-73
2022/03/13 06:44:10;;;;;;;0.40;0.20;;;5.30;99.90;;;;;;5009445;28;21393;-73
2022/03/13 06:46:36;;;;;;;0.40;0.30;;;5.40;99.90;;;;;;5009967;28;20389;-73
2022/03/13 06:49:05;;;;;;;1.30;1.20;;;5.40;99.90;;;;;;5011101;28;20385;-73
2022/03/13 06:51:31;;;;;;;0.90;0.50;;;5.60;99.90;;;;;;5011522;28;20795;-73
2022/03/13 06:53:57;;;;;;;1.30;1.20;;;5.60;98.80;;;;;;5007066;28;21347;-73
2022/03/13 06:56:22;;;;;;;0.40;0.20;;;5.60;99.20;;;;;;5011210;28;20396;-73
2022/03/13 06:58:48;;;;;;;0.40;0.30;;;5.80;98.80;;;;;;5010991;28;20741;-73
2022/03/13 07:01:14;;;;;;;0.40;0.20;;;5.70;98.40;;;;;;5012196;28;20381;-73
2022/03/13 07:03:40;;;;;;;0.40;0.20;;;5.70;99.10;;;;;;5011419;28;20391;-73
2022/03/13 07:06:06;;;;;;;0.40;0.20;;;5.90;99.00;;;;;;5009097;28;20810;-73
2022/03/13 07:08:32;;;;;;;0.43;0.38;;;6.00;97.90;;;;;;5012484;28;20480;-73
2022/03/13 07:11:01;;;;;;;0.50;0.50;;;6.30;97.10;;;;;;5011496;28;20491;-73
2022/03/13 07:13:32;;;;;;;0.50;0.50;;;6.50;96.30;;;;;;5010919;28;20730;-73
2022/03/13 07:16:03;;;;;;;0.50;0.50;;;6.70;95.60;;;;;;5011717;28;20455;-73
2022/03/13 07:18:30;;;;;;;0.40;0.30;;;6.90;95.90;;;;;;5012162;28;20481;-73
2022/03/13 07:20:56;;;;;;;0.40;0.20;;;7.20;95.40;;;;;;5011338;28;20381;-73
2022/03/13 07:23:22;;;;;;;0.40;0.30;;;7.50;93.70;;;;;;5012001;28;20927;-73
2022/03/13 07:25:49;;;;;;;0.40;0.23;;;7.80;91.80;;;;;;5011349;28;20385;-73
2022/03/13 07:28:15;;;;;;;0.60;0.60;;;8.00;91.70;;;;;;5011766;28;20381;-73
2022/03/13 07:30:41;;;;;;;4.10;0.60;;;8.30;90.70;;;;;;5010849;28;20389;-74
2022/03/13 07:33:07;;;;;;;0.60;0.60;;;8.40;89.80;;;;;;5004994;28;20382;-73
2022/03/13 07:35:32;;;;;;;0.70;0.70;;;8.30;87.90;;;;;;5004461;28;20392;-73
2022/03/13 07:37:58;;;;;;;0.40;0.40;;;8.40;87.10;;;;;;5001898;28;20715;-73
2022/03/13 07:40:24;;;;;;;0.50;0.50;;;8.40;86.60;;;;;;5001489;28;20392;-73
2022/03/13 07:42:49;;;;;;;0.70;0.70;;;8.50;86.40;;;;;;4991095;28;20433;-73
2022/03/13 07:45:15;;;;;;;0.80;0.80;;;8.50;86.90;;;;;;4992212;28;20474;-73
2022/03/13 07:47:41;;;;;;;0.40;0.20;;;8.60;87.20;;;;;;4991028;28;20469;-73
2022/03/13 07:50:08;;;;;;;0.70;0.60;;;8.50;87.90;;;;;;4991893;28;20383;-73
2022/03/13 07:52:34;;;;;;;0.40;0.30;;;8.50;88.40;;;;;;4990939;28;20395;-74
2022/03/13 07:55:00;;;;;;;0.40;0.20;;;8.60;88.70;;;;;;4990890;28;20410;-74
2022/03/13 07:57:28;;;;;;;0.60;0.60;;;8.60;89.10;;;;;;4992257;28;21010;-74
2022/03/13 07:59:54;;;;;;;2.30;1.10;;;8.60;88.80;;;;;;4991011;28;20731;-74
2022/03/13 08:02:20;;;;;;;1.65;1.55;;;8.80;89.10;;;;;;4991486;28;20902;-74
2022/03/13 08:04:46;;;;;;;0.50;0.50;;;8.70;89.90;;;;;;4990857;28;20472;-74
2022/03/13 08:07:12;;;;;;;0.50;0.40;;;8.90;89.50;;;;;;4991600;28;20521;-74
2022/03/13 08:13:00;;;;;;;0.80;0.80;;;9.30;87.50;;;;;;4997325;28;20546;-74
2022/03/13 08:15:26;;;;;;;0.90;0.90;;;9.40;85.20;;;;;;5002713;28;21008;-74
2022/03/13 08:17:52;;;;;;;1.70;1.60;;;9.60;83.60;;;;;;4999366;28;20377;-74
2022/03/13 08:20:17;;;;;;;0.50;0.50;;;9.70;83.20;;;;;;4999273;28;20404;-74
2022/03/13 08:22:43;;;;;;;0.40;0.30;;;9.90;81.80;;;;;;4998434;28;20401;-73
2022/03/13 08:25:11;;;;;;;0.40;0.20;;;10.30;76.90;;;;;;4999356;28;20775;-73
2022/03/13 08:27:36;;;;;;;1.20;1.10;;;10.30;77.50;;;;;;5001193;28;20415;-73
2022/03/13 08:30:03;;;;;;;0.70;0.70;;;10.40;80.00;;;;;;5000253;28;20386;-73
2022/03/13 08:32:30;;;;;;;0.90;0.90;;;10.10;82.80;;;;;;4998411;28;20397;-73
2022/03/13 08:34:56;;;;;;;1.20;1.20;;;10.10;83.10;;;;;;5000238;28;20412;-73
2022/03/13 08:37:22;;;;;;;0.40;0.30;;;10.20;84.30;;;;;;5005017;28;20437;-73
2022/03/13 08:39:48;;;;;;;0.40;0.20;;;10.20;83.50;;;;;;5009850;28;20397;-74
2022/03/13 08:42:14;;;;;;;0.50;0.50;;;10.30;82.50;;;;;;5010630;28;20846;-73
2022/03/13 08:44:40;;;;;;;0.40;0.30;;;10.30;82.50;;;;;;5001478;28;20747;-73
2022/03/13 08:47:06;;;;;;;0.67;0.60;;;10.30;82.50;;;;;;5005602;28;20449;-74
2022/03/13 08:49:35;;;;;;;0.70;0.60;;;10.40;82.60;;;;;;5007758;28;20531;-73
2022/03/13 08:52:01;;;;;;;0.40;0.40;;;10.50;82.60;;;;;;5009754;28;20420;-73
2022/03/13 08:54:27;;;;;;;0.40;0.30;;;10.50;82.70;;;;;;5007919;28;20761;-73
2022/03/13 08:56:53;;;;;;;0.70;0.70;;;10.50;82.80;;;;;;5003379;28;20491;-73
2022/03/13 08:59:23;;;;;;;4.00;1.30;;;10.40;82.30;;;;;;5004016;28;20833;-74
2022/03/13 09:01:49;;;;;;;1.30;1.30;;;10.60;82.40;;;;;;5006526;28;20420;-75
2022/03/13 09:04:15;;;;;;;1.80;0.70;;;10.60;82.80;;;;;;5009946;28;20389;-75
2022/03/13 09:06:43;;;;;;;0.60;0.60;;;10.60;81.30;;;;;;5010154;28;20417;-75
2022/03/13 09:09:09;;;;;;;0.40;0.30;;;10.80;80.90;;;;;;5006230;28;20501;-74
2022/03/13 09:11:36;;;;;;;0.40;0.30;;;10.80;80.50;;;;;;4989927;28;20437;-75
2022/03/13 09:14:04;;;;;;;1.50;0.95;;;10.90;80.40;;;;;;4990365;28;20387;-74
2022/03/13 09:16:31;;;;;;;0.52;0.52;;;11.10;79.80;;;;;;4994718;28;20391;-74
2022/03/13 09:18:58;;;;;;;0.70;0.70;;;11.40;78.60;;;;;;4993904;28;20473;-74
2022/03/13 09:21:23;;;;;;;0.60;0.60;;;11.70;78.00;;;;;;4994658;28;20389;-74
2022/03/13 09:23:50;;;;;;;0.80;0.80;;;11.60;77.20;;;;;;4993955;28;20406;-74
2022/03/13 09:26:28;;;;;;;0.40;0.40;;;11.80;78.40;;;;;;4994374;28;20394;-73
2022/03/13 09:28:54;;;;;;;0.40;0.30;;;12.10;75.90;;;;;;4993766;28;20387;-74
2022/03/13 09:31:20;;;;;;;8.00;2.00;;;12.50;76.50;;;;;;4994516;28;20394;-75
2022/03/13 09:33:46;;;;;;;1.00;0.90;;;12.40;75.60;;;;;;4993966;28;20397;-75
2022/03/13 09:36:11;;;;;;;1.80;1.70;;;12.70;75.40;;;;;;5013072;28;20422;-75
2022/03/13 09:38:37;;;;;;;0.60;0.60;;;12.90;75.20;;;;;;5014846;28;20401;-75
2022/03/13 09:41:03;;;;;;;1.20;1.10;;;13.10;74.80;;;;;;5013010;28;20902;-75
2022/03/13 09:43:29;;;;;;;1.70;1.30;;;13.30;74.80;;;;;;5012830;28;20900;-74
2022/03/13 09:45:55;;;;;;;0.40;0.20;;;13.50;75.50;;;;;;5013047;28;20731;-73
2022/03/13 09:48:21;;;;;;;1.10;1.10;;;13.60;72.90;;;;;;5010878;28;20385;-73
2022/03/13 09:50:47;;;;;;;0.43;0.32;;;14.10;69.80;;;;;;5011282;28;20398;-74
2022/03/13 09:53:14;;;;;;;1.60;1.50;;;14.00;70.30;;;;;;5005742;28;20745;-73
2022/03/13 09:55:40;;;;;;;0.80;0.60;;;14.20;70.00;;;;;;5005747;28;20399;-74
2022/03/13 09:58:08;;;;;;;1.00;0.60;;;14.50;69.70;;;;;;5009639;28;20413;-73
2022/03/13 10:00:36;;;;;;;0.90;0.60;;;14.30;68.80;;;;;;5010739;28;20447;-73
2022/03/13 10:03:05;;;;;;;1.20;1.10;;;14.00;69.70;;;;;;5012605;28;20409;-73
2022/03/13 10:05:41;;;;;;;1.70;1.60;;;14.00;68.70;;;;;;5013432;28;20531;-73
2022/03/13 10:08:07;;;;;;;0.80;0.80;;;14.10;68.90;;;;;;5012301;28;20888;-74
2022/03/13 10:10:44;;;;;;;1.30;1.20;;;13.90;68.70;;;;;;4997520;28;20391;-73
2022/03/13 10:13:13;;;;;;;0.70;0.70;;;13.70;68.90;;;;;;4993558;28;20395;-73
2022/03/13 10:15:43;;;;;;;0.40;0.20;;;13.60;69.50;;;;;;4993757;28;20852;-72
2022/03/13 10:18:35;;;;;;;1.35;1.25;;;13.60;70.40;;;;;;4991969;28;20394;-74
2022/03/13 10:21:12;;;;;;;0.82;0.82;;;13.80;71.40;;;;;;4990654;28;20434;-74
2022/03/13 10:23:40;;;;;;;0.40;0.30;;;14.00;69.80;;;;;;4993700;28;20410;-73
2022/03/13 10:26:06;;;;;;;1.70;0.70;;;13.90;69.00;;;;;;4991214;28;20939;-74
2022/03/13 10:28:42;;;;;;;1.10;1.10;;;14.00;69.10;;;;;;4992094;28;20898;-73
2022/03/13 10:31:17;;;;;;;1.40;1.10;;;13.70;68.90;;;;;;4993073;28;20648;-74
2022/03/13 10:33:43;;;;;;;0.40;0.40;;;13.90;68.80;;;;;;5003950;28;20407;-74
2022/03/13 10:36:14;;;;;;;0.43;0.43;;;13.90;68.30;;;;;;4992552;28;20856;-74
2022/03/13 10:38:42;;;;;;;1.60;1.50;;;13.90;67.60;;;;;;4993477;28;20476;-73
2022/03/13 10:41:12;;;;;;;0.40;0.40;;;13.90;68.30;;;;;;4992073;28;21031;-75
2022/03/13 10:43:58;;;;;;;0.50;0.40;;;14.10;68.40;;;;;;4993309;28;20415;-75
2022/03/13 10:46:26;;;;;;;0.80;0.70;;;14.20;67.00;;;;;;4992692;28;20410;-75
2022/03/13 10:48:53;;;;;;;1.13;0.80;;;14.40;67.10;;;;;;4997694;28;20408;-73
2022/03/13 10:51:45;;;;;;;0.40;0.40;;;14.40;66.50;;;;;;5006088;28;20395;-73
2022/03/13 10:54:29;;;;;;;1.10;0.90;;;14.40;65.90;;;;;;4997358;28;20394;-74
2022/03/13 10:57:09;;;;;;;0.40;0.40;;;14.30;65.60;;;;;;5003014;28;20389;-75
2022/03/13 10:59:35;;;;;;;1.60;1.50;;;14.50;66.40;;;;;;5005589;28;20400;-74
2022/03/13 11:02:18;;;;;;;0.60;0.60;;;14.50;69.30;;;;;;4999203;28;20406;-75
2022/03/13 11:04:51;;;;;;;1.30;0.80;;;14.50;70.50;;;;;;5004270;28;20454;-75
2022/03/13 11:07:19;;;;;;;0.80;0.80;;;14.60;69.60;;;;;;5001198;28;20405;-73
2022/03/13 11:09:45;;;;;;;0.40;0.40;;;14.70;69.70;;;;;;5004331;28;20391;-75
2022/03/13 11:12:17;;;;;;;1.55;1.48;;;14.70;70.00;;;;;;5001338;28;20815;-74
2022/03/13 11:14:45;;;;;;;1.10;0.80;;;14.30;69.40;;;;;;5001261;28;20536;-75
2022/03/13 11:17:12;;;;;;;1.20;0.75;;;14.50;69.90;;;;;;5001769;28;20413;-75
2022/03/13 11:19:41;;;;;;;1.00;1.00;;;15.00;70.10;;;;;;5002656;28;20400;-74
2022/03/13 11:22:07;;;;;;;2.30;1.80;;;15.00;67.80;;;;;;4998007;28;20432;-74
2022/03/13 11:24:36;;;;;;;1.30;1.30;;;14.40;68.40;;;;;;5003624;28;20394;-75
2022/03/13 11:27:08;;;;;;;0.40;0.30;;;14.60;69.00;;;;;;4997550;28;20393;-76
2022/03/13 11:29:43;;;;;;;0.80;0.80;;;14.80;69.10;;;;;;5008175;28;20384;-75
2022/03/13 11:32:46;;;;;;;0.90;0.80;;;15.10;68.50;;;;;;5001626;28;20453;-74
2022/03/13 11:35:18;;;;;;;0.73;0.60;;;15.70;66.00;;;;;;4993888;28;20393;-76
2022/03/13 11:38:00;;;;;;;1.00;1.00;;;15.80;65.70;;;;;;5001777;28;20403;-75
2022/03/13 11:40:36;;;;;;;1.40;1.00;;;16.30;65.40;;;;;;5003918;28;20527;-75
2022/03/13 11:43:06;;;;;;;1.75;1.45;;;15.90;65.70;;;;;;5001788;28;20487;-75
2022/03/13 11:45:34;;;;;;;0.80;0.80;;;16.60;64.50;;;;;;5009545;28;20908;-74
2022/03/13 11:48:13;;;;;;;0.50;0.50;;;17.10;61.90;;;;;;4999846;28;20829;-74
2022/03/13 11:51:00;;;;;;;0.40;0.30;;;18.20;60.70;;;;;;4999178;28;20904;-75
2022/03/13 11:53:42;;;;;;;1.10;0.80;;;18.30;58.00;;;;;;5000387;28;20428;-75
2022/03/13 11:56:10;;;;;;;0.40;0.40;;;18.90;57.60;;;;;;5001891;28;20403;-76
2022/03/13 11:58:42;;;;;;;1.60;1.00;;;19.10;56.60;;;;;;5005344;28;20421;-73
2022/03/13 12:01:11;;;;;;;1.10;1.00;;;19.30;56.80;;;;;;5001663;28;20900;-77
2022/03/13 12:03:39;;;;;;;1.80;0.97;;;19.80;55.50;;;;;;5004911;28;20453;-75
2022/03/13 12:06:05;;;;;;;0.40;0.30;;;17.20;56.30;;;;;;4998561;28;20539;-74
2022/03/13 12:09:03;;;;;;;1.10;1.00;;;17.60;57.50;;;;;;5000831;28;20540;-74
2022/03/13 12:11:38;;;;;;;1.20;1.02;;;16.70;58.80;;;;;;4998540;28;20403;-73
2022/03/13 12:14:07;;;;;;;0.80;0.73;;;16.80;58.80;;;;;;5000645;28;20390;-73
2022/03/13 12:16:35;;;;;;;1.55;1.45;;;16.60;58.70;;;;;;5004110;28;20396;-75
2022/03/13 12:19:00;;;;;;;0.90;0.70;;;16.90;59.20;;;;;;4999889;28;20832;-74
2022/03/13 12:21:26;;;;;;;0.40;0.30;;;16.50;59.10;;;;;;5008169;28;20483;-75
2022/03/13 12:23:52;;;;;;;3.33;1.50;;;16.20;59.40;;;;;;5000127;28;20485;-74
2022/03/13 12:26:30;;;;;;;1.00;0.80;;;16.20;59.70;;;;;;4999336;28;20488;-74
2022/03/13 12:28:57;;;;;;;1.13;1.03;;;16.20;59.50;;;;;;5001476;28;20955;-74
2022/03/13 12:31:26;;;;;;;0.70;0.70;;;16.20;58.80;;;;;;5003579;28;20739;-74
2022/03/13 12:33:54;;;;;;;0.40;0.30;;;17.40;57.20;;;;;;5001493;28;20445;-73
2022/03/13 12:36:23;;;;;;;0.80;0.80;;;17.30;57.00;;;;;;5002398;28;20401;-74
2022/03/13 12:38:53;;;;;;;1.70;1.60;;;17.40;57.20;;;;;;5000908;28;20824;-74
2022/03/13 12:41:23;;;;;;;0.50;0.50;;;16.50;58.20;;;;;;5006195;28;20397;-75
2022/03/13 12:44:01;;;;;;;2.80;1.70;;;17.60;57.90;;;;;;5001294;28;20446;-74
2022/03/13 12:46:29;;;;;;;1.08;1.08;;;18.00;56.30;;;;;;5000082;28;20477;-74
2022/03/13 12:48:58;;;;;;;1.30;1.20;;;18.90;54.20;;;;;;4996836;28;20445;-74
2022/03/13 12:51:39;;;;;;;0.70;0.70;;;19.40;53.60;;;;;;5006469;28;20437;-74
2022/03/13 12:54:33;;;;;;;0.40;0.30;;;19.80;53.40;;;;;;5006633;28;20431;-75
2022/03/13 12:57:04;;;;;;;1.90;1.40;;;19.20;50.90;;;;;;5004585;28;20413;-74
2022/03/13 12:59:36;;;;;;;1.60;1.50;;;18.90;51.50;;;;;;5006332;28;20729;-75